sensor_id;sensor_type;location;lat;lon;timestamp;P1;durP1;ratioP1;P2;durP2;ratioP2
54555;SDS011;57291;37.520;15.106;2023-02-18T00:00:31;32.70;;;20.90;;
54555;SDS011;57291;37.520;15.106;2023-02-18T00:02:58;31.35;;;19.77;;
54555;SDS011;57291;37.520;15.106;2023-02-18T00:05:25;33.40;;;23.52;;
54555;SDS011;57291;37.520;15.106;2023-02-18T00:07:54;37.67;;;22.83;;
54555;SDS011;57291;37.520;15.106;2023-02-18T00:10:21;34.90;;;21.75;;
54555;SDS011;57291;37.520;15.106;2023-02-18T00:12:48;34.55;;;21.63;;
54555;SDS011;57291;37.520;15.106;2023-02-18T00:15:15;31.27;;;20.58;;
54555;SDS011;57291;37.520;15.106;2023-02-18T00:17:42;32.60;;;21.08;;
54555;SDS011;57291;37.520;15.106;2023-02-18T00:20:10;34.00;;;21.42;;
54555;SDS011;57291;37.520;15.106;2023-02-18T00:22:37;32.55;;;20.35;;
54555;SDS011;57291;37.520;15.106;2023-02-18T00:25:04;31.80;;;22.02;;
54555;SDS011;57291;37.520;15.106;2023-02-18T00:27:32;32.85;;;21.67;;
54555;SDS011;57291;37.520;15.106;2023-02-18T00:30:01;33.80;;;20.73;;
54555;SDS011;57291;37.520;15.106;2023-02-18T00:32:33;35.28;;;21.58;;
54555;SDS011;57291;37.520;15.106;2023-02-18T00:35:01;35.22;;;21.80;;
54555;SDS011;57291;37.520;15.106;2023-02-18T00:37:28;31.73;;;20.02;;
54555;SDS011;57291;37.520;15.106;2023-02-18T00:39:55;32.47;;;20.20;;
54555;SDS011;57291;37.520;15.106;2023-02-18T00:42:22;32.70;;;21.27;;
54555;SDS011;57291;37.520;15.106;2023-02-18T00:44:49;26.45;;;18.88;;
54555;SDS011;57291;37.520;15.106;2023-02-18T00:47:16;29.55;;;20.10;;
54555;SDS011;57291;37.520;15.106;2023-02-18T00:49:44;28.65;;;18.75;;
54555;SDS011;57291;37.520;15.106;2023-02-18T00:52:11;29.00;;;18.15;;
54555;SDS011;57291;37.520;15.106;2023-02-18T00:54:39;25.98;;;17.38;;
54555;SDS011;57291;37.520;15.106;2023-02-18T00:57:06;26.88;;;16.90;;
54555;SDS011;57291;37.520;15.106;2023-02-18T00:59:33;28.10;;;17.77;;
54555;SDS011;57291;37.520;15.106;2023-02-18T01:02:00;28.20;;;18.25;;
54555;SDS011;57291;37.520;15.106;2023-02-18T01:04:28;27.58;;;17.52;;
54555;SDS011;57291;37.520;15.106;2023-02-18T01:06:55;29.30;;;18.50;;
54555;SDS011;57291;37.520;15.106;2023-02-18T01:09:22;26.98;;;18.05;;
54555;SDS011;57291;37.520;15.106;2023-02-18T01:11:51;30.25;;;18.98;;
54555;SDS011;57291;37.520;15.106;2023-02-18T01:14:18;23.88;;;16.02;;
54555;SDS011;57291;37.520;15.106;2023-02-18T01:16:45;25.98;;;16.48;;
54555;SDS011;57291;37.520;15.106;2023-02-18T01:19:12;27.63;;;17.08;;
54555;SDS011;57291;37.520;15.106;2023-02-18T01:21:39;26.95;;;17.33;;
54555;SDS011;57291;37.520;15.106;2023-02-18T01:24:06;30.60;;;17.10;;
54555;SDS011;57291;37.520;15.106;2023-02-18T01:26:34;22.23;;;15.90;;
54555;SDS011;57291;37.520;15.106;2023-02-18T01:29:01;27.08;;;16.30;;
54555;SDS011;57291;37.520;15.106;2023-02-18T01:31:28;25.23;;;16.02;;
54555;SDS011;57291;37.520;15.106;2023-02-18T01:33:57;25.88;;;16.52;;
54555;SDS011;57291;37.520;15.106;2023-02-18T01:36:27;28.48;;;17.52;;
54555;SDS011;57291;37.520;15.106;2023-02-18T01:38:55;23.85;;;16.15;;
54555;SDS011;57291;37.520;15.106;2023-02-18T01:41:22;25.08;;;16.83;;
54555;SDS011;57291;37.520;15.106;2023-02-18T01:44:09;22.83;;;15.50;;
54555;SDS011;57291;37.520;15.106;2023-02-18T01:46:39;23.58;;;15.98;;
54555;SDS011;57291;37.520;15.106;2023-02-18T01:49:06;21.80;;;14.18;;
54555;SDS011;57291;37.520;15.106;2023-02-18T01:51:38;23.35;;;14.85;;
54555;SDS011;57291;37.520;15.106;2023-02-18T01:54:30;25.63;;;15.90;;
54555;SDS011;57291;37.520;15.106;2023-02-18T01:57:42;24.42;;;16.02;;
54555;SDS011;57291;37.520;15.106;2023-02-18T01:59:54;26.02;;;15.82;;
54555;SDS011;57291;37.520;15.106;2023-02-18T02:02:24;25.45;;;16.42;;
54555;SDS011;57291;37.520;15.106;2023-02-18T02:04:54;27.67;;;15.27;;
54555;SDS011;57291;37.520;15.106;2023-02-18T02:07:22;23.40;;;14.80;;
54555;SDS011;57291;37.520;15.106;2023-02-18T02:09:53;24.23;;;15.13;;
54555;SDS011;57291;37.520;15.106;2023-02-18T02:17:52;23.23;;;14.70;;
54555;SDS011;57291;37.520;15.106;2023-02-18T02:23:26;24.42;;;14.85;;
54555;SDS011;57291;37.520;15.106;2023-02-18T02:26:31;24.40;;;15.20;;
54555;SDS011;57291;37.520;15.106;2023-02-18T02:35:23;27.80;;;15.30;;
54555;SDS011;57291;37.520;15.106;2023-02-18T02:38:18;23.38;;;15.30;;
54555;SDS011;57291;37.520;15.106;2023-02-18T02:44:42;22.13;;;14.52;;
54555;SDS011;57291;37.520;15.106;2023-02-18T02:46:59;22.20;;;14.43;;
54555;SDS011;57291;37.520;15.106;2023-02-18T02:49:52;23.83;;;14.40;;
54555;SDS011;57291;37.520;15.106;2023-02-18T02:52:37;22.67;;;13.82;;
54555;SDS011;57291;37.520;15.106;2023-02-18T02:55:10;24.80;;;12.40;;
54555;SDS011;57291;37.520;15.106;2023-02-18T02:57:42;21.02;;;12.38;;
54555;SDS011;57291;37.520;15.106;2023-02-18T03:00:17;19.20;;;12.63;;
54555;SDS011;57291;37.520;15.106;2023-02-18T03:14:12;20.85;;;12.43;;
54555;SDS011;57291;37.520;15.106;2023-02-18T03:22:01;17.70;;;11.88;;
54555;SDS011;57291;37.520;15.106;2023-02-18T03:24:37;20.20;;;11.85;;
54555;SDS011;57291;37.520;15.106;2023-02-18T03:27:11;16.25;;;11.43;;
54555;SDS011;57291;37.520;15.106;2023-02-18T03:29:47;19.45;;;11.68;;
54555;SDS011;57291;37.520;15.106;2023-02-18T03:32:18;20.13;;;12.02;;
54555;SDS011;57291;37.520;15.106;2023-02-18T03:34:49;19.02;;;11.48;;
54555;SDS011;57291;37.520;15.106;2023-02-18T03:37:21;18.25;;;12.68;;
54555;SDS011;57291;37.520;15.106;2023-02-18T03:39:51;20.77;;;12.07;;
54555;SDS011;57291;37.520;15.106;2023-02-18T03:42:28;19.92;;;12.80;;
54555;SDS011;57291;37.520;15.106;2023-02-18T03:44:55;16.95;;;12.05;;
54555;SDS011;57291;37.520;15.106;2023-02-18T03:47:23;19.27;;;12.23;;
54555;SDS011;57291;37.520;15.106;2023-02-18T03:49:51;18.15;;;11.52;;
54555;SDS011;57291;37.520;15.106;2023-02-18T03:52:18;16.85;;;10.65;;
54555;SDS011;57291;37.520;15.106;2023-02-18T03:54:45;18.08;;;11.68;;
54555;SDS011;57291;37.520;15.106;2023-02-18T03:57:12;20.30;;;11.77;;
54555;SDS011;57291;37.520;15.106;2023-02-18T03:59:39;17.92;;;12.43;;
54555;SDS011;57291;37.520;15.106;2023-02-18T04:02:06;18.60;;;12.52;;
54555;SDS011;57291;37.520;15.106;2023-02-18T04:04:33;19.02;;;11.85;;
54555;SDS011;57291;37.520;15.106;2023-02-18T04:07:01;19.73;;;12.57;;
54555;SDS011;57291;37.520;15.106;2023-02-18T04:09:28;19.85;;;11.70;;
54555;SDS011;57291;37.520;15.106;2023-02-18T04:11:55;19.15;;;11.05;;
54555;SDS011;57291;37.520;15.106;2023-02-18T04:14:22;20.23;;;12.18;;
54555;SDS011;57291;37.520;15.106;2023-02-18T04:16:49;18.50;;;12.35;;
54555;SDS011;57291;37.520;15.106;2023-02-18T04:19:17;19.67;;;11.10;;
54555;SDS011;57291;37.520;15.106;2023-02-18T04:21:44;17.98;;;11.57;;
54555;SDS011;57291;37.520;15.106;2023-02-18T04:24:11;17.25;;;12.18;;
54555;SDS011;57291;37.520;15.106;2023-02-18T04:26:38;21.35;;;12.55;;
54555;SDS011;57291;37.520;15.106;2023-02-18T04:29:05;19.70;;;11.43;;
54555;SDS011;57291;37.520;15.106;2023-02-18T04:31:32;16.23;;;11.38;;
54555;SDS011;57291;37.520;15.106;2023-02-18T04:34:00;17.70;;;10.88;;
54555;SDS011;57291;37.520;15.106;2023-02-18T04:36:27;18.80;;;12.05;;
54555;SDS011;57291;37.520;15.106;2023-02-18T04:38:54;15.40;;;11.43;;
54555;SDS011;57291;37.520;15.106;2023-02-18T04:41:21;20.67;;;12.57;;
54555;SDS011;57291;37.520;15.106;2023-02-18T04:43:48;17.00;;;12.05;;
54555;SDS011;57291;37.520;15.106;2023-02-18T04:46:15;18.63;;;11.80;;
54555;SDS011;57291;37.520;15.106;2023-02-18T04:48:42;19.63;;;11.70;;
54555;SDS011;57291;37.520;15.106;2023-02-18T04:51:10;17.58;;;11.45;;
54555;SDS011;57291;37.520;15.106;2023-02-18T04:53:37;19.02;;;11.90;;
54555;SDS011;57291;37.520;15.106;2023-02-18T04:56:04;17.70;;;11.07;;
54555;SDS011;57291;37.520;15.106;2023-02-18T04:58:32;18.48;;;12.20;;
54555;SDS011;57291;37.520;15.106;2023-02-18T05:01:00;15.90;;;12.18;;
54555;SDS011;57291;37.520;15.106;2023-02-18T05:03:28;22.15;;;12.88;;
54555;SDS011;57291;37.520;15.106;2023-02-18T05:05:55;18.33;;;12.10;;
54555;SDS011;57291;37.520;15.106;2023-02-18T05:08:23;20.77;;;13.60;;
54555;SDS011;57291;37.520;15.106;2023-02-18T05:10:50;17.50;;;12.02;;
54555;SDS011;57291;37.520;15.106;2023-02-18T05:13:17;18.98;;;12.95;;
54555;SDS011;57291;37.520;15.106;2023-02-18T05:15:44;20.63;;;13.48;;
54555;SDS011;57291;37.520;15.106;2023-02-18T05:18:11;22.73;;;12.93;;
54555;SDS011;57291;37.520;15.106;2023-02-18T05:20:38;18.38;;;12.07;;
54555;SDS011;57291;37.520;15.106;2023-02-18T05:23:05;20.08;;;11.65;;
54555;SDS011;57291;37.520;15.106;2023-02-18T05:25:32;21.20;;;13.85;;
54555;SDS011;57291;37.520;15.106;2023-02-18T05:27:59;18.35;;;12.80;;
54555;SDS011;57291;37.520;15.106;2023-02-18T05:30:27;22.52;;;14.35;;
54555;SDS011;57291;37.520;15.106;2023-02-18T05:32:54;23.45;;;15.05;;
54555;SDS011;57291;37.520;15.106;2023-02-18T05:35:21;23.20;;;15.27;;
54555;SDS011;57291;37.520;15.106;2023-02-18T05:37:48;24.25;;;15.05;;
54555;SDS011;57291;37.520;15.106;2023-02-18T05:40:15;21.20;;;14.65;;
54555;SDS011;57291;37.520;15.106;2023-02-18T05:42:42;20.90;;;13.65;;
54555;SDS011;57291;37.520;15.106;2023-02-18T05:45:09;23.73;;;14.68;;
54555;SDS011;57291;37.520;15.106;2023-02-18T05:47:36;29.88;;;15.90;;
54555;SDS011;57291;37.520;15.106;2023-02-18T05:50:04;22.40;;;14.70;;
54555;SDS011;57291;37.520;15.106;2023-02-18T05:52:31;23.95;;;14.73;;
54555;SDS011;57291;37.520;15.106;2023-02-18T05:54:58;20.85;;;13.93;;
54555;SDS011;57291;37.520;15.106;2023-02-18T05:57:26;22.73;;;13.63;;
54555;SDS011;57291;37.520;15.106;2023-02-18T05:59:53;26.02;;;14.90;;
54555;SDS011;57291;37.520;15.106;2023-02-18T06:02:20;20.30;;;14.02;;
54555;SDS011;57291;37.520;15.106;2023-02-18T06:04:47;23.55;;;16.15;;
54555;SDS011;57291;37.520;15.106;2023-02-18T06:07:14;23.25;;;15.43;;
54555;SDS011;57291;37.520;15.106;2023-02-18T06:09:41;21.80;;;15.05;;
54555;SDS011;57291;37.520;15.106;2023-02-18T06:12:09;18.88;;;12.93;;
54555;SDS011;57291;37.520;15.106;2023-02-18T06:14:36;18.85;;;13.63;;
54555;SDS011;57291;37.520;15.106;2023-02-18T06:17:07;19.50;;;13.70;;
54555;SDS011;57291;37.520;15.106;2023-02-18T06:19:35;17.27;;;12.68;;
54555;SDS011;57291;37.520;15.106;2023-02-18T06:22:02;18.15;;;13.15;;
54555;SDS011;57291;37.520;15.106;2023-02-18T06:24:30;19.95;;;14.98;;
54555;SDS011;57291;37.520;15.106;2023-02-18T06:26:57;19.00;;;13.60;;
54555;SDS011;57291;37.520;15.106;2023-02-18T06:29:24;19.40;;;12.27;;
54555;SDS011;57291;37.520;15.106;2023-02-18T06:31:51;17.13;;;12.77;;
54555;SDS011;57291;37.520;15.106;2023-02-18T06:34:18;20.02;;;13.82;;
54555;SDS011;57291;37.520;15.106;2023-02-18T06:36:45;17.85;;;13.27;;
54555;SDS011;57291;37.520;15.106;2023-02-18T06:39:12;19.38;;;13.70;;
54555;SDS011;57291;37.520;15.106;2023-02-18T06:41:40;18.88;;;14.07;;
54555;SDS011;57291;37.520;15.106;2023-02-18T06:44:07;16.02;;;12.32;;
54555;SDS011;57291;37.520;15.106;2023-02-18T06:46:34;19.23;;;12.65;;
54555;SDS011;57291;37.520;15.106;2023-02-18T06:49:01;19.10;;;13.13;;
54555;SDS011;57291;37.520;15.106;2023-02-18T06:51:29;17.52;;;13.77;;
54555;SDS011;57291;37.520;15.106;2023-02-18T06:53:56;19.33;;;13.13;;
54555;SDS011;57291;37.520;15.106;2023-02-18T06:56:23;18.77;;;13.68;;
54555;SDS011;57291;37.520;15.106;2023-02-18T06:58:50;16.80;;;12.85;;
54555;SDS011;57291;37.520;15.106;2023-02-18T07:01:17;21.30;;;13.98;;
54555;SDS011;57291;37.520;15.106;2023-02-18T07:03:44;18.40;;;13.88;;
54555;SDS011;57291;37.520;15.106;2023-02-18T07:06:15;17.75;;;12.13;;
54555;SDS011;57291;37.520;15.106;2023-02-18T07:08:42;13.70;;;10.23;;
54555;SDS011;57291;37.520;15.106;2023-02-18T07:11:09;11.73;;;9.45;;
54555;SDS011;57291;37.520;15.106;2023-02-18T07:13:36;14.82;;;10.27;;
54555;SDS011;57291;37.520;15.106;2023-02-18T07:16:06;14.90;;;11.07;;
54555;SDS011;57291;37.520;15.106;2023-02-18T07:18:34;16.38;;;11.25;;
54555;SDS011;57291;37.520;15.106;2023-02-18T07:21:01;17.98;;;11.63;;
54555;SDS011;57291;37.520;15.106;2023-02-18T07:23:28;20.40;;;14.45;;
54555;SDS011;57291;37.520;15.106;2023-02-18T07:26:05;22.13;;;14.07;;
54555;SDS011;57291;37.520;15.106;2023-02-18T07:28:34;21.88;;;13.40;;
54555;SDS011;57291;37.520;15.106;2023-02-18T07:31:02;16.80;;;13.05;;
54555;SDS011;57291;37.520;15.106;2023-02-18T07:33:30;10.13;;;8.05;;
54555;SDS011;57291;37.520;15.106;2023-02-18T07:35:58;17.40;;;9.90;;
54555;SDS011;57291;37.520;15.106;2023-02-18T07:38:27;10.98;;;7.30;;
54555;SDS011;57291;37.520;15.106;2023-02-18T07:40:54;10.13;;;8.10;;
54555;SDS011;57291;37.520;15.106;2023-02-18T07:43:22;17.73;;;10.77;;
54555;SDS011;57291;37.520;15.106;2023-02-18T07:45:50;14.77;;;9.25;;
54555;SDS011;57291;37.520;15.106;2023-02-18T07:48:17;18.58;;;11.48;;
54555;SDS011;57291;37.520;15.106;2023-02-18T07:50:45;16.65;;;11.68;;
54555;SDS011;57291;37.520;15.106;2023-02-18T07:53:13;17.25;;;9.93;;
54555;SDS011;57291;37.520;15.106;2023-02-18T07:55:42;20.20;;;10.70;;
54555;SDS011;57291;37.520;15.106;2023-02-18T08:00:49;13.98;;;8.57;;
54555;SDS011;57291;37.520;15.106;2023-02-18T08:03:18;15.27;;;9.93;;
54555;SDS011;57291;37.520;15.106;2023-02-18T08:05:47;19.38;;;11.10;;
54555;SDS011;57291;37.520;15.106;2023-02-18T08:08:20;15.27;;;9.90;;
54555;SDS011;57291;37.520;15.106;2023-02-18T08:10:52;15.30;;;9.82;;
54555;SDS011;57291;37.520;15.106;2023-02-18T08:13:20;15.02;;;7.85;;
54555;SDS011;57291;37.520;15.106;2023-02-18T08:15:48;15.07;;;8.98;;
54555;SDS011;57291;37.520;15.106;2023-02-18T08:18:16;13.32;;;8.30;;
54555;SDS011;57291;37.520;15.106;2023-02-18T08:20:45;14.13;;;9.55;;
54555;SDS011;57291;37.520;15.106;2023-02-18T08:23:13;14.32;;;8.95;;
54555;SDS011;57291;37.520;15.106;2023-02-18T08:25:45;17.42;;;9.07;;
54555;SDS011;57291;37.520;15.106;2023-02-18T08:28:16;14.52;;;9.43;;
54555;SDS011;57291;37.520;15.106;2023-02-18T08:30:48;14.23;;;9.18;;
54555;SDS011;57291;37.520;15.106;2023-02-18T08:33:16;13.57;;;8.32;;
54555;SDS011;57291;37.520;15.106;2023-02-18T08:35:44;13.30;;;9.25;;
54555;SDS011;57291;37.520;15.106;2023-02-18T08:38:12;11.00;;;7.05;;
54555;SDS011;57291;37.520;15.106;2023-02-18T08:40:39;20.90;;;10.13;;
54555;SDS011;57291;37.520;15.106;2023-02-18T08:43:07;11.10;;;7.82;;
54555;SDS011;57291;37.520;15.106;2023-02-18T08:45:35;13.85;;;8.82;;
54555;SDS011;57291;37.520;15.106;2023-02-18T08:48:05;10.13;;;6.47;;
54555;SDS011;57291;37.520;15.106;2023-02-18T08:50:46;8.73;;;6.32;;
54555;SDS011;57291;37.520;15.106;2023-02-18T08:53:13;8.75;;;6.20;;
54555;SDS011;57291;37.520;15.106;2023-02-18T08:55:41;12.00;;;6.38;;
54555;SDS011;57291;37.520;15.106;2023-02-18T08:58:08;8.85;;;6.47;;
54555;SDS011;57291;37.520;15.106;2023-02-18T09:00:36;11.13;;;6.95;;
54555;SDS011;57291;37.520;15.106;2023-02-18T09:03:03;9.70;;;6.72;;
54555;SDS011;57291;37.520;15.106;2023-02-18T09:05:30;11.00;;;6.72;;
54555;SDS011;57291;37.520;15.106;2023-02-18T09:07:57;10.70;;;7.85;;
54555;SDS011;57291;37.520;15.106;2023-02-18T09:10:24;12.25;;;8.15;;
54555;SDS011;57291;37.520;15.106;2023-02-18T09:12:51;12.60;;;7.60;;
54555;SDS011;57291;37.520;15.106;2023-02-18T09:15:19;11.93;;;8.35;;
54555;SDS011;57291;37.520;15.106;2023-02-18T09:17:46;11.43;;;8.20;;
54555;SDS011;57291;37.520;15.106;2023-02-18T09:20:13;12.07;;;7.50;;
54555;SDS011;57291;37.520;15.106;2023-02-18T09:22:40;12.07;;;8.40;;
54555;SDS011;57291;37.520;15.106;2023-02-18T09:25:07;12.98;;;8.50;;
54555;SDS011;57291;37.520;15.106;2023-02-18T09:27:35;11.98;;;7.85;;
54555;SDS011;57291;37.520;15.106;2023-02-18T09:30:02;11.45;;;7.93;;
54555;SDS011;57291;37.520;15.106;2023-02-18T09:32:30;11.38;;;7.65;;
54555;SDS011;57291;37.520;15.106;2023-02-18T09:35:01;11.50;;;7.47;;
54555;SDS011;57291;37.520;15.106;2023-02-18T09:37:30;10.55;;;6.90;;
54555;SDS011;57291;37.520;15.106;2023-02-18T09:39:57;12.13;;;7.13;;
54555;SDS011;57291;37.520;15.106;2023-02-18T09:42:27;14.02;;;8.57;;
54555;SDS011;57291;37.520;15.106;2023-02-18T09:45:03;12.13;;;7.75;;
54555;SDS011;57291;37.520;15.106;2023-02-18T09:47:39;10.30;;;7.00;;
54555;SDS011;57291;37.520;15.106;2023-02-18T09:50:22;9.45;;;6.95;;
54555;SDS011;57291;37.520;15.106;2023-02-18T09:52:52;11.25;;;7.78;;
54555;SDS011;57291;37.520;15.106;2023-02-18T09:57:56;12.35;;;7.70;;
54555;SDS011;57291;37.520;15.106;2023-02-18T10:00:35;9.98;;;7.20;;
54555;SDS011;57291;37.520;15.106;2023-02-18T10:03:19;10.05;;;7.13;;
54555;SDS011;57291;37.520;15.106;2023-02-18T10:05:58;13.55;;;7.57;;
54555;SDS011;57291;37.520;15.106;2023-02-18T10:08:27;14.82;;;7.35;;
54555;SDS011;57291;37.520;15.106;2023-02-18T10:10:57;9.82;;;7.57;;
54555;SDS011;57291;37.520;15.106;2023-02-18T10:13:27;9.93;;;7.03;;
54555;SDS011;57291;37.520;15.106;2023-02-18T10:15:56;9.40;;;7.10;;
54555;SDS011;57291;37.520;15.106;2023-02-18T10:18:30;12.02;;;7.78;;
54555;SDS011;57291;37.520;15.106;2023-02-18T10:21:20;12.02;;;8.18;;
54555;SDS011;57291;37.520;15.106;2023-02-18T10:26:23;9.85;;;7.25;;
54555;SDS011;57291;37.520;15.106;2023-02-18T10:28:50;10.40;;;7.18;;
54555;SDS011;57291;37.520;15.106;2023-02-18T10:31:24;11.50;;;7.65;;
54555;SDS011;57291;37.520;15.106;2023-02-18T10:34:05;14.10;;;7.68;;
54555;SDS011;57291;37.520;15.106;2023-02-18T10:36:54;10.90;;;7.45;;
54555;SDS011;57291;37.520;15.106;2023-02-18T10:39:32;12.50;;;8.40;;
54555;SDS011;57291;37.520;15.106;2023-02-18T10:42:07;13.55;;;8.30;;
54555;SDS011;57291;37.520;15.106;2023-02-18T10:45:08;13.23;;;8.32;;
54555;SDS011;57291;37.520;15.106;2023-02-18T10:48:03;11.90;;;7.57;;
54555;SDS011;57291;37.520;15.106;2023-02-18T10:50:53;12.85;;;8.70;;
54555;SDS011;57291;37.520;15.106;2023-02-18T10:53:28;15.52;;;8.75;;
54555;SDS011;57291;37.520;15.106;2023-02-18T10:56:00;14.68;;;9.07;;
54555;SDS011;57291;37.520;15.106;2023-02-18T10:58:32;15.23;;;8.68;;
54555;SDS011;57291;37.520;15.106;2023-02-18T11:01:20;15.18;;;8.60;;
54555;SDS011;57291;37.520;15.106;2023-02-18T11:03:49;12.27;;;8.48;;
54555;SDS011;57291;37.520;15.106;2023-02-18T11:06:24;14.00;;;8.35;;
54555;SDS011;57291;37.520;15.106;2023-02-18T11:08:59;13.90;;;8.70;;
54555;SDS011;57291;37.520;15.106;2023-02-18T11:11:31;11.80;;;8.55;;
54555;SDS011;57291;37.520;15.106;2023-02-18T11:14:08;16.02;;;9.15;;
54555;SDS011;57291;37.520;15.106;2023-02-18T11:16:45;13.73;;;8.75;;
54555;SDS011;57291;37.520;15.106;2023-02-18T11:19:33;10.35;;;7.38;;
54555;SDS011;57291;37.520;15.106;2023-02-18T11:22:06;12.18;;;8.77;;
54555;SDS011;57291;37.520;15.106;2023-02-18T11:24:54;14.80;;;9.55;;
54555;SDS011;57291;37.520;15.106;2023-02-18T11:27:43;13.23;;;8.30;;
54555;SDS011;57291;37.520;15.106;2023-02-18T11:30:22;11.05;;;8.65;;
54555;SDS011;57291;37.520;15.106;2023-02-18T11:32:51;14.70;;;8.77;;
54555;SDS011;57291;37.520;15.106;2023-02-18T11:35:23;14.98;;;9.45;;
54555;SDS011;57291;37.520;15.106;2023-02-18T11:37:54;11.52;;;7.90;;
54555;SDS011;57291;37.520;15.106;2023-02-18T11:43:11;12.80;;;7.72;;
54555;SDS011;57291;37.520;15.106;2023-02-18T11:45:40;12.02;;;8.15;;
54555;SDS011;57291;37.520;15.106;2023-02-18T11:48:18;11.23;;;8.10;;
54555;SDS011;57291;37.520;15.106;2023-02-18T11:50:49;11.48;;;8.48;;
54555;SDS011;57291;37.520;15.106;2023-02-18T11:53:29;9.57;;;6.20;;
54555;SDS011;57291;37.520;15.106;2023-02-18T11:55:59;9.23;;;7.22;;
54555;SDS011;57291;37.520;15.106;2023-02-18T11:58:31;10.82;;;7.55;;
54555;SDS011;57291;37.520;15.106;2023-02-18T12:01:05;10.95;;;8.18;;
54555;SDS011;57291;37.520;15.106;2023-02-18T12:06:37;10.57;;;6.63;;
54555;SDS011;57291;37.520;15.106;2023-02-18T12:11:43;9.77;;;6.97;;
54555;SDS011;57291;37.520;15.106;2023-02-18T12:14:19;9.95;;;6.97;;
54555;SDS011;57291;37.520;15.106;2023-02-18T12:19:38;12.43;;;8.43;;
54555;SDS011;57291;37.520;15.106;2023-02-18T12:50:47;12.82;;;7.28;;
54555;SDS011;57291;37.520;15.106;2023-02-18T13:13:30;6.38;;;5.68;;
54555;SDS011;57291;37.520;15.106;2023-02-18T13:16:14;6.43;;;5.10;;
54555;SDS011;57291;37.520;15.106;2023-02-18T13:21:24;6.10;;;4.90;;
54555;SDS011;57291;37.520;15.106;2023-02-18T13:23:59;10.30;;;4.72;;
54555;SDS011;57291;37.520;15.106;2023-02-18T13:26:30;6.85;;;5.13;;
54555;SDS011;57291;37.520;15.106;2023-02-18T13:29:21;8.27;;;5.40;;
54555;SDS011;57291;37.520;15.106;2023-02-18T13:32:16;7.95;;;5.07;;
54555;SDS011;57291;37.520;15.106;2023-02-18T13:40:30;6.93;;;5.57;;
54555;SDS011;57291;37.520;15.106;2023-02-18T13:43:17;7.18;;;5.53;;
54555;SDS011;57291;37.520;15.106;2023-02-18T13:54:26;6.63;;;5.78;;
54555;SDS011;57291;37.520;15.106;2023-02-18T13:57:18;8.38;;;5.88;;
54555;SDS011;57291;37.520;15.106;2023-02-18T13:59:58;6.95;;;5.57;;
54555;SDS011;57291;37.520;15.106;2023-02-18T14:02:34;8.68;;;5.53;;
54555;SDS011;57291;37.520;15.106;2023-02-18T14:05:19;7.22;;;5.57;;
54555;SDS011;57291;37.520;15.106;2023-02-18T14:07:49;6.60;;;4.70;;
54555;SDS011;57291;37.520;15.106;2023-02-18T14:10:34;7.80;;;5.60;;
54555;SDS011;57291;37.520;15.106;2023-02-18T14:15:50;7.38;;;4.93;;
54555;SDS011;57291;37.520;15.106;2023-02-18T14:33:39;7.38;;;5.45;;
54555;SDS011;57291;37.520;15.106;2023-02-18T14:50:10;7.95;;;5.63;;
54555;SDS011;57291;37.520;15.106;2023-02-18T14:52:49;7.75;;;5.68;;
54555;SDS011;57291;37.520;15.106;2023-02-18T14:55:34;6.38;;;5.35;;
54555;SDS011;57291;37.520;15.106;2023-02-18T14:58:23;6.20;;;5.50;;
54555;SDS011;57291;37.520;15.106;2023-02-18T15:00:55;8.98;;;5.88;;
54555;SDS011;57291;37.520;15.106;2023-02-18T15:03:24;10.25;;;6.18;;
54555;SDS011;57291;37.520;15.106;2023-02-18T15:05:53;7.43;;;5.60;;
54555;SDS011;57291;37.520;15.106;2023-02-18T15:08:21;6.93;;;5.28;;
54555;SDS011;57291;37.520;15.106;2023-02-18T15:10:59;9.20;;;6.03;;
54555;SDS011;57291;37.520;15.106;2023-02-18T15:15:58;8.15;;;5.00;;
54555;SDS011;57291;37.520;15.106;2023-02-18T15:18:30;9.73;;;5.50;;
54555;SDS011;57291;37.520;15.106;2023-02-18T15:21:04;7.40;;;5.90;;
54555;SDS011;57291;37.520;15.106;2023-02-18T15:23:35;7.70;;;4.88;;
54555;SDS011;57291;37.520;15.106;2023-02-18T15:26:04;11.77;;;5.80;;
54555;SDS011;57291;37.520;15.106;2023-02-18T15:28:33;7.38;;;6.00;;
54555;SDS011;57291;37.520;15.106;2023-02-18T15:31:09;13.23;;;6.75;;
54555;SDS011;57291;37.520;15.106;2023-02-18T15:36:11;9.77;;;5.38;;
54555;SDS011;57291;37.520;15.106;2023-02-18T15:38:41;7.72;;;6.10;;
54555;SDS011;57291;37.520;15.106;2023-02-18T15:41:14;9.60;;;5.30;;
54555;SDS011;57291;37.520;15.106;2023-02-18T15:43:52;8.55;;;5.40;;
54555;SDS011;57291;37.520;15.106;2023-02-18T15:46:22;10.27;;;6.30;;
54555;SDS011;57291;37.520;15.106;2023-02-18T15:48:52;11.43;;;6.00;;
54555;SDS011;57291;37.520;15.106;2023-02-18T15:51:26;8.27;;;6.13;;
54555;SDS011;57291;37.520;15.106;2023-02-18T15:53:57;8.57;;;6.18;;
54555;SDS011;57291;37.520;15.106;2023-02-18T16:01:49;9.38;;;5.85;;
54555;SDS011;57291;37.520;15.106;2023-02-18T16:04:20;9.52;;;6.35;;
54555;SDS011;57291;37.520;15.106;2023-02-18T16:06:50;7.85;;;5.97;;
54555;SDS011;57291;37.520;15.106;2023-02-18T16:09:21;10.30;;;6.20;;
54555;SDS011;57291;37.520;15.106;2023-02-18T16:11:53;8.55;;;6.10;;
54555;SDS011;57291;37.520;15.106;2023-02-18T16:14:46;9.60;;;5.95;;
54555;SDS011;57291;37.520;15.106;2023-02-18T16:17:21;9.80;;;6.28;;
54555;SDS011;57291;37.520;15.106;2023-02-18T16:20:14;9.35;;;6.57;;
54555;SDS011;57291;37.520;15.106;2023-02-18T16:22:43;12.13;;;6.63;;
54555;SDS011;57291;37.520;15.106;2023-02-18T16:27:49;9.75;;;6.68;;
54555;SDS011;57291;37.520;15.106;2023-02-18T16:30:37;12.73;;;7.15;;
54555;SDS011;57291;37.520;15.106;2023-02-18T16:33:07;9.98;;;7.20;;
54555;SDS011;57291;37.520;15.106;2023-02-18T16:35:34;10.55;;;7.15;;
54555;SDS011;57291;37.520;15.106;2023-02-18T16:38:15;10.52;;;6.82;;
54555;SDS011;57291;37.520;15.106;2023-02-18T16:40:45;9.20;;;7.10;;
54555;SDS011;57291;37.520;15.106;2023-02-18T16:43:14;11.13;;;7.05;;
54555;SDS011;57291;37.520;15.106;2023-02-18T16:45:45;10.68;;;7.13;;
54555;SDS011;57291;37.520;15.106;2023-02-18T16:51:30;12.60;;;6.85;;
54555;SDS011;57291;37.520;15.106;2023-02-18T16:54:00;11.20;;;6.82;;
54555;SDS011;57291;37.520;15.106;2023-02-18T16:56:31;10.20;;;6.50;;
54555;SDS011;57291;37.520;15.106;2023-02-18T16:59:01;10.60;;;6.03;;
54555;SDS011;57291;37.520;15.106;2023-02-18T17:01:29;10.00;;;6.35;;
54555;SDS011;57291;37.520;15.106;2023-02-18T17:04:00;10.63;;;6.57;;
54555;SDS011;57291;37.520;15.106;2023-02-18T17:06:28;8.10;;;6.20;;
54555;SDS011;57291;37.520;15.106;2023-02-18T17:08:55;11.27;;;6.75;;
54555;SDS011;57291;37.520;15.106;2023-02-18T17:11:24;10.32;;;6.57;;
54555;SDS011;57291;37.520;15.106;2023-02-18T17:13:55;12.55;;;7.45;;
54555;SDS011;57291;37.520;15.106;2023-02-18T17:16:26;8.63;;;5.72;;
54555;SDS011;57291;37.520;15.106;2023-02-18T17:18:54;10.57;;;5.88;;
54555;SDS011;57291;37.520;15.106;2023-02-18T17:21:22;9.13;;;5.85;;
54555;SDS011;57291;37.520;15.106;2023-02-18T17:23:50;11.80;;;5.75;;
54555;SDS011;57291;37.520;15.106;2023-02-18T17:26:22;9.52;;;6.03;;
54555;SDS011;57291;37.520;15.106;2023-02-18T17:28:52;11.38;;;6.40;;